Time;durP1;ratioP1;P1;durP2;ratioP2;P2;SDS_P1;SDS_P2;PMS_P1;PMS_P2;Temp;Humidity;BMP_temperature;BMP_pressure;BME280_temperature;BME280_humidity;BME280_pressure;Samples;Min_cycle;Max_cycle;Signal;HPM_P1;HPM_P2
2022/01/08 00:00:09;;;;;;;9.32;7.72;;;;;;;;;;5000488;28;20919;-56
2022/01/08 00:02:34;;;;;;;10.63;7.57;;;;;;;;;;5005573;28;20175;-56
2022/01/08 00:05:00;;;;;;;13.65;8.30;;;;;;;;;;5007178;28;20671;-56
2022/01/08 00:07:26;;;;;;;9.70;7.35;;;;;;;;;;5001400;28;20207;-57
2022/01/08 00:09:51;;;;;;;9.10;7.00;;;;;;;;;;5002676;28;20202;-56
2022/01/08 00:12:16;;;;;;;9.05;7.15;;;;;;;;;;4990764;28;20242;-56
2022/01/08 00:14:41;;;;;;;12.13;7.65;;;;;;;;;;5006874;28;20568;-56
2022/01/08 00:17:06;;;;;;;11.00;7.45;;;;;;;;;;4986344;28;20176;-57
2022/01/08 00:19:32;;;;;;;10.75;7.82;;;;;;;;;;4979299;28;20182;-57
2022/01/08 00:21:57;;;;;;;9.27;7.53;;;;;;;;;;4982404;28;20290;-57
2022/01/08 00:24:22;;;;;;;8.15;6.20;;;;;;;;;;5005153;28;20175;-57
2022/01/08 00:26:48;;;;;;;6.75;6.00;;;;;;;;;;5007412;28;20637;-57
2022/01/08 00:29:13;;;;;;;5.63;4.90;;;;;;;;;;5002212;28;20204;-57
2022/01/08 00:31:38;;;;;;;5.00;4.47;;;;;;;;;;4998054;28;20171;-57
2022/01/08 00:34:03;;;;;;;5.03;4.63;;;;;;;;;;5000859;28;20182;-58
2022/01/08 00:36:29;;;;;;;5.90;4.80;;;;;;;;;;5000053;28;20269;-58
2022/01/08 00:38:54;;;;;;;5.65;4.60;;;;;;;;;;4997920;28;20179;-56
2022/01/08 00:41:19;;;;;;;5.55;5.05;;;;;;;;;;4998765;28;20190;-56
2022/01/08 00:43:44;;;;;;;5.63;4.75;;;;;;;;;;5002101;28;20236;-55
2022/01/08 00:46:10;;;;;;;4.47;4.07;;;;;;;;;;5000285;28;20183;-56
2022/01/08 00:48:35;;;;;;;9.50;4.78;;;;;;;;;;4994832;28;20695;-56
2022/01/08 00:51:00;;;;;;;5.32;4.15;;;;;;;;;;4999765;28;20246;-56
2022/01/08 00:53:25;;;;;;;4.05;3.75;;;;;;;;;;5005364;28;20203;-56
2022/01/08 00:55:51;;;;;;;4.40;3.97;;;;;;;;;;5008054;28;20186;-56
2022/01/08 00:58:16;;;;;;;4.55;4.15;;;;;;;;;;4994689;28;20182;-56
2022/01/08 01:00:41;;;;;;;4.72;4.25;;;;;;;;;;4977704;28;20196;-56
2022/01/08 01:03:07;;;;;;;6.13;5.10;;;;;;;;;;4979600;28;20172;-56
2022/01/08 01:05:33;;;;;;;5.28;4.70;;;;;;;;;;4992627;28;20210;-56
2022/01/08 01:07:58;;;;;;;7.35;6.07;;;;;;;;;;4996475;28;20245;-57
2022/01/08 01:10:23;;;;;;;7.53;6.47;;;;;;;;;;4999747;28;20179;-56
2022/01/08 01:12:48;;;;;;;9.88;7.78;;;;;;;;;;4999396;28;20184;-56
2022/01/08 01:15:15;;;;;;;7.93;6.55;;;;;;;;;;5001697;28;20183;-57
2022/01/08 01:17:41;;;;;;;8.27;6.15;;;;;;;;;;4995737;28;20186;-56
2022/01/08 01:20:07;;;;;;;8.40;6.85;;;;;;;;;;4984610;28;20188;-56
2022/01/08 01:22:44;;;;;;;8.77;6.32;;;;;;;;;;4997087;28;20206;-57
2022/01/08 01:25:13;;;;;;;7.85;6.75;;;;;;;;;;5000821;28;20182;-57
2022/01/08 01:30:29;;;;;;;9.07;7.32;;;;;;;;;;4999756;28;20179;-58
2022/01/08 01:49:16;;;;;;;23.00;16.50;;;;;;;;;;4987901;28;20199;-57
2022/01/08 01:51:42;;;;;;;24.67;18.58;;;;;;;;;;4996722;28;20168;-56
2022/01/08 01:54:07;;;;;;;27.38;18.80;;;;;;;;;;4996910;28;20191;-56
2022/01/08 01:56:32;;;;;;;26.13;18.73;;;;;;;;;;4997025;28;20175;-56
2022/01/08 01:58:58;;;;;;;35.50;20.98;;;;;;;;;;4999329;28;20217;-56
2022/01/08 02:01:23;;;;;;;35.83;22.35;;;;;;;;;;4996294;28;20535;-57
2022/01/08 02:03:48;;;;;;;36.03;23.38;;;;;;;;;;4976408;28;20190;-57
2022/01/08 02:06:14;;;;;;;37.55;22.52;;;;;;;;;;4978899;28;20270;-57
2022/01/08 02:08:39;;;;;;;36.55;21.63;;;;;;;;;;4989631;28;20586;-57
2022/01/08 02:11:07;;;;;;;36.58;23.40;;;;;;;;;;5004084;28;20236;-58
2022/01/08 02:13:33;;;;;;;38.55;22.90;;;;;;;;;;4998954;28;20187;-57
2022/01/08 02:16:01;;;;;;;39.65;24.42;;;;;;;;;;4999849;28;20167;-57
2022/01/08 02:18:26;;;;;;;37.45;22.95;;;;;;;;;;4998183;28;20708;-57
2022/01/08 02:20:54;;;;;;;39.60;24.25;;;;;;;;;;5001221;28;20208;-56
2022/01/08 02:23:20;;;;;;;39.70;22.70;;;;;;;;;;5001476;28;20183;-57
2022/01/08 02:25:45;;;;;;;37.10;24.17;;;;;;;;;;5000715;28;20182;-57
2022/01/08 02:28:10;;;;;;;38.17;22.92;;;;;;;;;;5001657;28;20199;-57
2022/01/08 02:30:35;;;;;;;39.30;23.45;;;;;;;;;;4999913;28;20180;-57
2022/01/08 02:33:01;;;;;;;41.88;24.25;;;;;;;;;;5000557;28;20629;-57
2022/01/08 02:35:26;;;;;;;39.08;23.40;;;;;;;;;;5002436;28;20256;-57
2022/01/08 02:37:52;;;;;;;35.28;22.35;;;;;;;;;;5000471;28;20792;-57
2022/01/08 02:40:21;;;;;;;39.17;23.10;;;;;;;;;;5003159;28;20241;-58
2022/01/08 02:42:52;;;;;;;36.30;21.10;;;;;;;;;;5006689;28;20196;-56
2022/01/08 02:45:19;;;;;;;35.70;20.85;;;;;;;;;;5000234;28;20185;-56
2022/01/08 02:47:44;;;;;;;32.20;20.10;;;;;;;;;;5000972;28;20254;-57
2022/01/08 02:50:10;;;;;;;34.10;20.08;;;;;;;;;;5003514;28;20594;-57
2022/01/08 02:52:39;;;;;;;36.60;19.98;;;;;;;;;;5003335;28;20238;-57
2022/01/08 02:55:05;;;;;;;35.28;20.95;;;;;;;;;;5004269;28;20180;-56
2022/01/08 02:57:30;;;;;;;33.92;21.17;;;;;;;;;;4993023;28;20191;-56
2022/01/08 02:59:55;;;;;;;32.70;20.05;;;;;;;;;;4996776;28;20269;-56
2022/01/08 03:02:21;;;;;;;32.65;19.63;;;;;;;;;;5003604;28;20183;-57
2022/01/08 03:04:48;;;;;;;27.77;18.67;;;;;;;;;;4994807;28;20190;-56
2022/01/08 03:07:13;;;;;;;30.75;19.88;;;;;;;;;;4999209;28;20267;-57
2022/01/08 03:09:41;;;;;;;24.88;17.23;;;;;;;;;;5001482;28;20708;-57
2022/01/08 03:12:06;;;;;;;23.98;15.90;;;;;;;;;;5001495;28;20183;-56
2022/01/08 03:14:32;;;;;;;24.50;16.85;;;;;;;;;;4994329;28;20261;-57
2022/01/08 03:16:57;;;;;;;27.27;17.58;;;;;;;;;;5002707;28;20190;-57
2022/01/08 03:19:23;;;;;;;26.60;18.00;;;;;;;;;;5001390;28;20171;-57
2022/01/08 03:21:52;;;;;;;24.83;16.50;;;;;;;;;;5004841;28;20634;-57
2022/01/08 03:24:25;;;;;;;25.38;16.35;;;;;;;;;;5002140;28;20191;-56
2022/01/08 03:26:50;;;;;;;21.08;15.00;;;;;;;;;;4999649;28;20190;-57
2022/01/08 03:29:16;;;;;;;20.27;14.18;;;;;;;;;;4999463;28;20195;-56
2022/01/08 03:31:41;;;;;;;28.98;17.90;;;;;;;;;;5003669;28;20179;-57
2022/01/08 03:34:06;;;;;;;26.88;18.33;;;;;;;;;;4997748;28;20643;-57
2022/01/08 03:36:32;;;;;;;28.55;18.42;;;;;;;;;;4998030;28;20187;-57
2022/01/08 03:38:57;;;;;;;23.02;16.85;;;;;;;;;;5005932;28;20187;-57
2022/01/08 03:41:22;;;;;;;30.33;19.38;;;;;;;;;;5000326;28;20202;-57
2022/01/08 03:43:48;;;;;;;32.85;20.27;;;;;;;;;;4998772;28;20184;-57
2022/01/08 03:46:13;;;;;;;30.83;20.58;;;;;;;;;;4999617;28;20265;-57
2022/01/08 03:49:11;;;;;;;31.15;22.27;;;;;;;;;;4998013;28;20207;-57
2022/01/08 03:51:32;;;;;;;30.10;21.27;;;;;;;;;;5000290;28;20257;-57
2022/01/08 03:53:58;;;;;;;32.30;20.75;;;;;;;;;;4997672;28;20652;-58
2022/01/08 03:56:24;;;;;;;28.90;20.35;;;;;;;;;;5005023;28;20186;-57
2022/01/08 03:58:49;;;;;;;32.88;19.92;;;;;;;;;;5005009;28;21133;-57
2022/01/08 04:01:15;;;;;;;27.52;20.08;;;;;;;;;;5005509;28;20175;-58
2022/01/08 04:03:40;;;;;;;28.85;20.50;;;;;;;;;;4996458;28;20183;-57
2022/01/08 04:06:06;;;;;;;32.28;21.50;;;;;;;;;;4999086;28;20252;-57
2022/01/08 04:08:31;;;;;;;30.48;19.45;;;;;;;;;;4998403;28;20924;-56
2022/01/08 04:10:56;;;;;;;27.88;20.90;;;;;;;;;;4999276;28;20191;-57
2022/01/08 04:13:28;;;;;;;32.75;21.80;;;;;;;;;;5001118;28;20194;-57
2022/01/08 04:15:58;;;;;;;33.75;22.73;;;;;;;;;;5009159;28;20194;-56
2022/01/08 04:18:24;;;;;;;35.10;23.80;;;;;;;;;;5001060;28;20170;-57
2022/01/08 04:23:22;;;;;;;34.05;21.95;;;;;;;;;;4997866;28;20643;-57
2022/01/08 04:25:48;;;;;;;32.42;21.73;;;;;;;;;;5001710;28;20267;-57
2022/01/08 04:28:13;;;;;;;33.63;20.52;;;;;;;;;;4994358;28;20290;-57
2022/01/08 04:30:39;;;;;;;30.02;21.90;;;;;;;;;;4997136;28;20209;-56
2022/01/08 04:33:04;;;;;;;33.45;21.90;;;;;;;;;;4998775;28;20182;-57
2022/01/08 04:35:29;;;;;;;30.75;21.13;;;;;;;;;;5000809;28;20234;-57
2022/01/08 04:37:54;;;;;;;34.10;21.50;;;;;;;;;;4998908;28;20209;-57
2022/01/08 04:40:20;;;;;;;33.05;20.90;;;;;;;;;;4991930;28;20183;-57
2022/01/08 04:42:45;;;;;;;32.58;21.52;;;;;;;;;;4996531;28;20187;-57
2022/01/08 04:45:11;;;;;;;36.22;21.17;;;;;;;;;;5003042;28;20175;-57
2022/01/08 04:47:36;;;;;;;39.85;22.27;;;;;;;;;;4998213;28;20200;-57
2022/01/08 04:50:01;;;;;;;34.85;21.83;;;;;;;;;;5000072;28;20240;-57
2022/01/08 04:52:26;;;;;;;36.45;21.90;;;;;;;;;;4997591;28;20186;-57
2022/01/08 04:54:52;;;;;;;31.75;21.25;;;;;;;;;;4999116;28;20667;-57
2022/01/08 04:57:17;;;;;;;33.90;21.70;;;;;;;;;;4994250;28;20218;-56
2022/01/08 04:59:42;;;;;;;37.92;21.95;;;;;;;;;;4997202;28;20589;-57
2022/01/08 05:02:08;;;;;;;38.80;24.00;;;;;;;;;;4997559;28;20283;-57
2022/01/08 05:04:33;;;;;;;32.17;21.05;;;;;;;;;;5000040;28;20655;-57
2022/01/08 05:06:58;;;;;;;36.00;22.80;;;;;;;;;;5001278;28;20221;-57
2022/01/08 05:09:24;;;;;;;35.90;22.77;;;;;;;;;;4997294;28;20210;-57
2022/01/08 05:11:49;;;;;;;37.33;22.02;;;;;;;;;;4980940;28;20218;-56
2022/01/08 05:14:14;;;;;;;39.92;25.05;;;;;;;;;;4978404;28;21064;-58
2022/01/08 05:16:42;;;;;;;38.42;23.63;;;;;;;;;;4982203;28;20184;-57
2022/01/08 05:19:07;;;;;;;40.45;24.35;;;;;;;;;;4997872;28;20199;-57
2022/01/08 05:21:36;;;;;;;36.47;24.30;;;;;;;;;;4992333;28;20187;-57
2022/01/08 05:24:02;;;;;;;38.60;23.13;;;;;;;;;;5000905;28;20183;-57
2022/01/08 05:26:27;;;;;;;42.17;25.25;;;;;;;;;;4991975;28;20188;-57
2022/01/08 05:28:52;;;;;;;43.08;24.60;;;;;;;;;;4998536;28;20211;-57
2022/01/08 05:31:20;;;;;;;41.45;23.65;;;;;;;;;;4998834;28;20183;-58
2022/01/08 05:33:46;;;;;;;35.22;23.00;;;;;;;;;;4996266;28;20186;-57
2022/01/08 05:36:11;;;;;;;39.08;22.55;;;;;;;;;;4997725;28;20198;-57
2022/01/08 05:38:36;;;;;;;38.38;23.52;;;;;;;;;;5001855;28;20187;-57
2022/01/08 05:41:02;;;;;;;65.50;32.05;;;;;;;;;;4991958;28;20183;-57
2022/01/08 05:43:27;;;;;;;46.95;26.85;;;;;;;;;;5003198;28;20186;-57
2022/01/08 05:45:52;;;;;;;43.97;25.58;;;;;;;;;;4997443;28;20182;-57
2022/01/08 05:48:18;;;;;;;39.38;23.33;;;;;;;;;;5004574;28;20238;-57
2022/01/08 05:50:43;;;;;;;40.97;23.60;;;;;;;;;;5001925;28;20179;-57
2022/01/08 05:53:08;;;;;;;37.10;22.35;;;;;;;;;;4986812;28;20207;-57
2022/01/08 05:55:34;;;;;;;35.13;21.77;;;;;;;;;;4976828;28;20258;-56
2022/01/08 05:57:59;;;;;;;32.65;21.67;;;;;;;;;;4978546;28;20188;-56
2022/01/08 06:00:24;;;;;;;32.65;20.75;;;;;;;;;;4988977;28;20274;-57
2022/01/08 06:02:49;;;;;;;35.35;20.83;;;;;;;;;;4996365;28;20191;-57
2022/01/08 06:05:15;;;;;;;36.78;21.73;;;;;;;;;;5003778;28;20182;-57
2022/01/08 06:07:40;;;;;;;35.75;21.10;;;;;;;;;;5001327;28;20208;-57
2022/01/08 06:10:05;;;;;;;39.53;22.38;;;;;;;;;;4997948;28;20683;-57
2022/01/08 06:12:31;;;;;;;38.95;22.67;;;;;;;;;;4989977;28;20180;-56
2022/01/08 06:14:56;;;;;;;37.90;24.42;;;;;;;;;;4993604;28;20194;-57
2022/01/08 06:17:22;;;;;;;35.78;23.08;;;;;;;;;;4996617;28;20992;-56
2022/01/08 06:19:47;;;;;;;43.55;26.73;;;;;;;;;;4999692;28;20187;-56
2022/01/08 06:22:12;;;;;;;42.22;25.40;;;;;;;;;;5005832;28;20181;-57
2022/01/08 06:24:38;;;;;;;40.08;25.17;;;;;;;;;;4991670;28;20186;-56
2022/01/08 06:27:03;;;;;;;46.72;27.38;;;;;;;;;;4999922;28;20172;-57
2022/01/08 06:29:28;;;;;;;43.40;26.20;;;;;;;;;;5000170;28;20778;-57
2022/01/08 06:31:54;;;;;;;43.28;26.42;;;;;;;;;;4996970;28;20592;-56
2022/01/08 06:34:19;;;;;;;48.10;26.48;;;;;;;;;;4995322;28;20202;-56
2022/01/08 06:36:45;;;;;;;41.92;25.95;;;;;;;;;;4976756;28;20200;-58
2022/01/08 06:39:11;;;;;;;42.03;25.45;;;;;;;;;;4977419;28;20192;-56
2022/01/08 06:41:36;;;;;;;45.78;26.30;;;;;;;;;;4989096;28;20254;-57
2022/01/08 06:44:01;;;;;;;45.47;27.33;;;;;;;;;;5000731;28;20211;-57
2022/01/08 06:46:26;;;;;;;46.25;28.02;;;;;;;;;;4997306;28;20270;-57
2022/01/08 06:48:52;;;;;;;48.65;29.45;;;;;;;;;;4991835;28;20206;-57
2022/01/08 06:51:17;;;;;;;46.05;28.33;;;;;;;;;;5002745;28;20648;-57
2022/01/08 06:53:43;;;;;;;44.30;28.33;;;;;;;;;;5001982;28;20207;-56
2022/01/08 06:56:08;;;;;;;41.10;25.58;;;;;;;;;;5007136;28;20757;-56
2022/01/08 06:58:34;;;;;;;44.38;28.02;;;;;;;;;;4995643;28;20194;-57
2022/01/08 07:01:00;;;;;;;51.33;31.13;;;;;;;;;;4997507;28;20210;-58
2022/01/08 07:03:25;;;;;;;55.53;33.22;;;;;;;;;;4999523;28;20191;-57
2022/01/08 07:05:50;;;;;;;64.97;36.78;;;;;;;;;;4997813;28;20652;-57
2022/01/08 07:08:16;;;;;;;59.03;34.33;;;;;;;;;;5001158;28;20207;-56
2022/01/08 07:10:41;;;;;;;56.42;32.63;;;;;;;;;;5004190;28;20600;-57
2022/01/08 07:13:06;;;;;;;53.42;32.40;;;;;;;;;;4999882;28;20679;-57
2022/01/08 07:15:32;;;;;;;52.42;31.73;;;;;;;;;;5004007;28;20259;-57
2022/01/08 07:17:57;;;;;;;52.53;30.45;;;;;;;;;;4986530;28;20187;-56
2022/01/08 07:20:22;;;;;;;67.43;36.58;;;;;;;;;;4995475;28;20198;-57
2022/01/08 07:22:48;;;;;;;48.97;29.90;;;;;;;;;;4982996;28;20266;-57
2022/01/08 07:25:14;;;;;;;47.65;29.25;;;;;;;;;;5003851;28;20191;-57
2022/01/08 07:27:39;;;;;;;58.40;32.60;;;;;;;;;;4996269;28;20286;-57
2022/01/08 07:30:05;;;;;;;53.03;30.90;;;;;;;;;;5000177;28;20191;-57
2022/01/08 07:32:31;;;;;;;51.67;30.60;;;;;;;;;;5002705;28;20248;-56
2022/01/08 07:34:56;;;;;;;57.45;30.27;;;;;;;;;;5007200;28;20194;-57
2022/01/08 07:37:22;;;;;;;49.88;26.05;;;;;;;;;;5001320;28;20179;-58
2022/01/08 07:39:47;;;;;;;46.50;26.13;;;;;;;;;;4980702;28;20183;-58
2022/01/08 07:42:12;;;;;;;46.55;27.58;;;;;;;;;;4980258;28;20184;-58
2022/01/08 07:44:39;;;;;;;44.65;27.25;;;;;;;;;;4990719;28;20179;-58
2022/01/08 07:47:05;;;;;;;45.85;26.52;;;;;;;;;;5005097;28;20186;-57
2022/01/08 07:49:30;;;;;;;56.42;27.88;;;;;;;;;;4998844;28;20207;-58
2022/01/08 07:51:55;;;;;;;55.88;29.02;;;;;;;;;;4999700;28;20182;-57
2022/01/08 07:54:20;;;;;;;50.70;28.25;;;;;;;;;;5006078;28;20211;-56
2022/01/08 07:56:46;;;;;;;50.55;29.10;;;;;;;;;;5001274;28;20179;-56
2022/01/08 07:59:11;;;;;;;47.42;29.15;;;;;;;;;;5001575;28;20183;-56
2022/01/08 08:01:36;;;;;;;48.00;29.23;;;;;;;;;;4998268;28;20186;-55
2022/01/08 08:04:01;;;;;;;52.80;30.17;;;;;;;;;;5000102;28;20183;-56
2022/01/08 08:06:27;;;;;;;48.60;27.08;;;;;;;;;;5002202;28;20191;-57
2022/01/08 08:08:52;;;;;;;51.03;29.25;;;;;;;;;;4999513;28;20215;-56
2022/01/08 08:11:17;;;;;;;54.10;28.52;;;;;;;;;;5001739;28;20241;-56
2022/01/08 08:13:42;;;;;;;53.50;28.13;;;;;;;;;;5000657;28;20214;-57
2022/01/08 08:16:08;;;;;;;49.20;28.35;;;;;;;;;;5003903;28;20578;-57
2022/01/08 08:18:33;;;;;;;51.83;29.92;;;;;;;;;;4994332;28;20183;-56
2022/01/08 08:20:58;;;;;;;59.00;33.03;;;;;;;;;;4991250;28;20188;-57
2022/01/08 08:23:24;;;;;;;55.15;33.05;;;;;;;;;;4979343;28;20184;-57
2022/01/08 08:25:49;;;;;;;50.60;28.92;;;;;;;;;;4980905;28;20209;-57
2022/01/08 08:28:14;;;;;;;51.17;29.38;;;;;;;;;;4994052;28;20298;-58
2022/01/08 08:30:40;;;;;;;58.33;32.90;;;;;;;;;;5002773;28;20655;-57
2022/01/08 08:33:05;;;;;;;55.70;31.65;;;;;;;;;;5004019;28;20191;-57
2022/01/08 08:35:31;;;;;;;56.95;31.33;;;;;;;;;;4996762;28;20278;-57
2022/01/08 08:37:56;;;;;;;58.33;31.83;;;;;;;;;;4996647;28;20579;-57
2022/01/08 08:40:21;;;;;;;54.10;31.02;;;;;;;;;;4996620;28;20715;-57
2022/01/08 08:42:46;;;;;;;50.97;30.60;;;;;;;;;;4979506;28;20195;-56
2022/01/08 08:45:12;;;;;;;55.28;33.70;;;;;;;;;;4978890;28;20203;-57
2022/01/08 08:47:39;;;;;;;51.72;28.98;;;;;;;;;;4983649;28;20262;-56
2022/01/08 08:50:06;;;;;;;46.95;28.35;;;;;;;;;;4997169;28;20578;-56
2022/01/08 08:52:32;;;;;;;56.22;31.17;;;;;;;;;;5002191;28;20237;-57
2022/01/08 08:54:57;;;;;;;56.70;29.42;;;;;;;;;;5006954;28;20182;-56
2022/01/08 08:57:22;;;;;;;47.17;28.30;;;;;;;;;;5001531;28;20185;-56
2022/01/08 08:59:47;;;;;;;56.20;30.70;;;;;;;;;;4995014;28;20573;-56
2022/01/08 09:02:13;;;;;;;52.78;28.75;;;;;;;;;;4990390;28;20275;-56
2022/01/08 09:04:40;;;;;;;98.72;52.85;;;;;;;;;;4977571;28;20439;-57
2022/01/08 09:07:05;;;;;;;75.30;45.40;;;;;;;;;;4998547;28;20217;-57
2022/01/08 09:09:30;;;;;;;67.32;39.97;;;;;;;;;;4994580;28;20227;-57
2022/01/08 09:11:56;;;;;;;61.03;37.70;;;;;;;;;;4996205;28;20238;-57
2022/01/08 09:14:21;;;;;;;61.78;36.30;;;;;;;;;;4997750;28;20182;-57
2022/01/08 09:16:48;;;;;;;48.38;28.23;;;;;;;;;;4994697;28;20194;-57
2022/01/08 09:19:14;;;;;;;50.05;30.08;;;;;;;;;;4999893;28;21185;-57
2022/01/08 09:21:40;;;;;;;52.47;29.73;;;;;;;;;;4997923;28;20253;-57
2022/01/08 09:24:05;;;;;;;46.92;29.35;;;;;;;;;;4982389;28;20692;-57
2022/01/08 09:26:30;;;;;;;57.20;35.95;;;;;;;;;;4977799;28;20180;-57
2022/01/08 09:28:56;;;;;;;52.95;32.55;;;;;;;;;;4979552;28;20207;-57
2022/01/08 09:31:21;;;;;;;49.70;29.63;;;;;;;;;;4993805;28;20179;-57
2022/01/08 09:33:46;;;;;;;45.30;28.02;;;;;;;;;;5001773;28;20179;-58
2022/01/08 09:36:12;;;;;;;45.92;29.92;;;;;;;;;;5000415;28;20202;-56
2022/01/08 09:38:37;;;;;;;53.80;33.78;;;;;;;;;;4994721;28;20183;-57
2022/01/08 09:41:02;;;;;;;46.22;28.50;;;;;;;;;;4997329;28;20187;-57
2022/01/08 09:43:28;;;;;;;43.30;27.23;;;;;;;;;;5003100;28;20210;-57
2022/01/08 09:45:53;;;;;;;41.78;26.20;;;;;;;;;;4979792;28;20184;-55
2022/01/08 09:48:19;;;;;;;41.25;26.83;;;;;;;;;;4977983;28;20196;-57
2022/01/08 09:50:44;;;;;;;40.58;24.25;;;;;;;;;;4982448;28;20176;-56
2022/01/08 09:53:10;;;;;;;42.53;24.75;;;;;;;;;;4996236;28;20203;-57
2022/01/08 09:55:35;;;;;;;32.40;19.48;;;;;;;;;;4992658;28;20175;-57
2022/01/08 09:58:01;;;;;;;30.63;20.38;;;;;;;;;;4999731;28;20190;-57
2022/01/08 10:00:26;;;;;;;34.28;21.75;;;;;;;;;;5000264;28;20191;-57
2022/01/08 10:02:51;;;;;;;34.78;23.27;;;;;;;;;;5002981;28;20674;-57
2022/01/08 10:05:17;;;;;;;43.20;28.23;;;;;;;;;;4995743;28;20191;-57
2022/01/08 10:07:43;;;;;;;33.25;20.73;;;;;;;;;;4995410;28;20206;-57
2022/01/08 10:10:13;;;;;;;35.83;21.58;;;;;;;;;;4997710;28;20174;-57
2022/01/08 10:12:54;;;;;;;26.63;17.38;;;;;;;;;;5001969;28;20270;-57
2022/01/08 10:18:25;;;;;;;190.73;92.68;;;;;;;;;;4993472;28;20190;-57
2022/01/08 10:20:51;;;;;;;74.38;41.35;;;;;;;;;;4995259;28;20193;-57
2022/01/08 10:23:31;;;;;;;84.30;45.35;;;;;;;;;;4991662;28;20183;-57
2022/01/08 10:25:58;;;;;;;37.47;23.80;;;;;;;;;;4995044;28;20201;-56
2022/01/08 10:28:33;;;;;;;44.72;25.90;;;;;;;;;;4978481;28;20213;-56
2022/01/08 10:31:24;;;;;;;40.10;25.15;;;;;;;;;;4997644;28;20726;-56
2022/01/08 10:34:08;;;;;;;54.25;31.02;;;;;;;;;;5000257;28;20281;-56
2022/01/08 10:36:35;;;;;;;50.08;31.63;;;;;;;;;;4996917;28;20195;-56
2022/01/08 10:39:03;;;;;;;40.50;24.58;;;;;;;;;;5003854;28;20194;-57
2022/01/08 10:41:28;;;;;;;42.75;24.33;;;;;;;;;;5006385;28;20627;-57
2022/01/08 10:44:06;;;;;;;87.18;43.05;;;;;;;;;;4994095;28;20180;-56
2022/01/08 10:46:31;;;;;;;88.20;42.53;;;;;;;;;;5003845;28;20182;-57
2022/01/08 10:48:56;;;;;;;51.60;29.50;;;;;;;;;;4982629;28;20761;-57
2022/01/08 10:51:23;;;;;;;45.42;25.88;;;;;;;;;;4981641;28;20192;-57
2022/01/08 10:54:00;;;;;;;39.47;23.35;;;;;;;;;;5004275;28;20257;-57
2022/01/08 10:56:33;;;;;;;41.70;24.88;;;;;;;;;;4997937;28;20179;-58
2022/01/08 10:59:17;;;;;;;42.83;28.48;;;;;;;;;;5004027;28;20189;-57
2022/01/08 11:01:42;;;;;;;49.65;30.33;;;;;;;;;;5029156;28;20175;-57
2022/01/08 11:04:09;;;;;;;41.05;25.95;;;;;;;;;;5009165;28;20180;-57
2022/01/08 11:06:53;;;;;;;45.67;27.10;;;;;;;;;;4996994;28;20211;-58
2022/01/08 11:09:19;;;;;;;46.83;27.67;;;;;;;;;;4994028;28;20273;-55
2022/01/08 11:11:44;;;;;;;48.67;27.63;;;;;;;;;;4980632;28;20184;-58
2022/01/08 11:14:21;;;;;;;47.30;28.27;;;;;;;;;;5001135;28;20767;-57
2022/01/08 11:16:47;;;;;;;55.42;30.40;;;;;;;;;;4995523;28;20700;-58
2022/01/08 11:19:12;;;;;;;48.88;30.63;;;;;;;;;;4995936;28;20574;-57
2022/01/08 11:21:38;;;;;;;54.50;29.70;;;;;;;;;;4999464;28;20193;-57
2022/01/08 11:24:03;;;;;;;48.60;26.75;;;;;;;;;;5002188;28;20257;-56
2022/01/08 11:26:28;;;;;;;45.70;27.60;;;;;;;;;;4999995;28;20195;-56
2022/01/08 11:28:56;;;;;;;48.13;26.80;;;;;;;;;;4994345;28;20211;-57
2022/01/08 11:31:22;;;;;;;48.75;27.67;;;;;;;;;;4982234;28;20187;-57
2022/01/08 11:33:50;;;;;;;50.55;31.23;;;;;;;;;;4999393;28;20855;-57
2022/01/08 11:36:16;;;;;;;42.30;26.15;;;;;;;;;;5002645;28;20245;-57
2022/01/08 11:38:44;;;;;;;36.65;22.35;;;;;;;;;;5005396;28;20675;-57
2022/01/08 11:41:09;;;;;;;32.80;21.10;;;;;;;;;;4995505;28;20202;-57
2022/01/08 11:43:35;;;;;;;34.78;21.52;;;;;;;;;;5001199;28;20178;-57
2022/01/08 11:46:00;;;;;;;30.20;19.10;;;;;;;;;;5003611;28;20215;-57
2022/01/08 11:48:29;;;;;;;27.67;18.58;;;;;;;;;;4992343;28;20265;-57
2022/01/08 11:50:56;;;;;;;22.58;15.70;;;;;;;;;;4993887;28;20248;-56
2022/01/08 11:53:29;;;;;;;26.00;16.80;;;;;;;;;;4998650;28;20207;-57
2022/01/08 11:55:58;;;;;;;23.60;16.00;;;;;;;;;;5000670;28;20179;-57
2022/01/08 11:58:30;;;;;;;24.83;17.48;;;;;;;;;;4995839;28;20189;-57
2022/01/08 12:01:00;;;;;;;28.27;17.77;;;;;;;;;;5001454;28;20183;-56
2022/01/08 12:03:28;;;;;;;35.13;23.80;;;;;;;;;;5000021;28;20187;-57
2022/01/08 12:05:53;;;;;;;35.70;22.33;;;;;;;;;;5007319;28;20187;-56
2022/01/08 12:08:19;;;;;;;35.63;22.60;;;;;;;;;;5003341;28;20204;-57
2022/01/08 12:10:59;;;;;;;35.22;22.98;;;;;;;;;;5006460;28;20262;-57
2022/01/08 12:13:44;;;;;;;34.97;21.25;;;;;;;;;;4998740;28;20187;-57
2022/01/08 12:16:28;;;;;;;38.40;24.58;;;;;;;;;;4999056;28;20686;-57
2022/01/08 12:18:53;;;;;;;24.38;17.13;;;;;;;;;;5005738;28;20215;-57
2022/01/08 12:21:45;;;;;;;23.63;16.27;;;;;;;;;;4997379;28;20230;-57
2022/01/08 12:24:36;;;;;;;23.77;17.08;;;;;;;;;;4999987;28;20702;-57
2022/01/08 12:27:06;;;;;;;25.63;16.17;;;;;;;;;;5006725;28;20672;-56
2022/01/08 12:29:38;;;;;;;26.27;17.02;;;;;;;;;;4995397;28;20208;-57
2022/01/08 12:32:25;;;;;;;25.13;16.15;;;;;;;;;;5004519;28;20182;-57
2022/01/08 12:34:51;;;;;;;29.05;19.90;;;;;;;;;;4977702;28;20935;-56
2022/01/08 12:37:18;;;;;;;30.30;19.63;;;;;;;;;;4979698;28;20175;-57
2022/01/08 12:39:43;;;;;;;26.02;18.30;;;;;;;;;;4992481;28;20585;-56
2022/01/08 12:42:24;;;;;;;26.30;18.48;;;;;;;;;;4999703;28;20187;-57
2022/01/08 12:44:58;;;;;;;30.92;20.85;;;;;;;;;;5001735;28;20191;-56
2022/01/08 12:47:38;;;;;;;31.45;21.00;;;;;;;;;;4992530;28;20183;-56
2022/01/08 12:50:22;;;;;;;29.08;20.90;;;;;;;;;;4997080;28;21328;-56
2022/01/08 12:53:05;;;;;;;29.92;21.38;;;;;;;;;;4990385;28;20708;-56
2022/01/08 12:55:31;;;;;;;34.92;22.40;;;;;;;;;;4978920;28;20171;-57
2022/01/08 12:57:57;;;;;;;41.03;26.35;;;;;;;;;;4978831;28;20648;-57
2022/01/08 13:00:22;;;;;;;49.17;30.98;;;;;;;;;;4987565;28;20216;-57
2022/01/08 13:02:47;;;;;;;41.42;26.48;;;;;;;;;;5000887;28;20222;-57
2022/01/08 13:05:13;;;;;;;33.60;22.90;;;;;;;;;;4993931;28;20253;-57
2022/01/08 13:07:51;;;;;;;40.03;27.67;;;;;;;;;;5000380;28;20187;-57
2022/01/08 13:10:17;;;;;;;32.85;21.15;;;;;;;;;;4997269;28;20171;-57
2022/01/08 13:12:43;;;;;;;26.42;17.83;;;;;;;;;;5002161;28;20248;-57
2022/01/08 13:15:09;;;;;;;25.65;18.50;;;;;;;;;;4997825;28;20180;-56
2022/01/08 13:17:34;;;;;;;32.00;20.00;;;;;;;;;;4977373;28;20871;-56
2022/01/08 13:20:00;;;;;;;27.65;20.10;;;;;;;;;;4979247;28;20186;-56
2022/01/08 13:22:26;;;;;;;44.42;28.92;;;;;;;;;;4998506;28;20278;-57
2022/01/08 13:24:52;;;;;;;30.25;20.20;;;;;;;;;;5004036;28;20215;-57
2022/01/08 13:27:20;;;;;;;31.52;22.58;;;;;;;;;;5002387;28;20292;-58
2022/01/08 13:29:46;;;;;;;30.77;20.90;;;;;;;;;;4995571;28;20233;-56
2022/01/08 13:32:12;;;;;;;37.70;24.25;;;;;;;;;;5001983;28;20258;-56
2022/01/08 13:34:37;;;;;;;34.10;19.67;;;;;;;;;;4995236;28;20882;-57
2022/01/08 13:37:05;;;;;;;28.52;19.25;;;;;;;;;;4985648;28;20184;-56
2022/01/08 13:39:31;;;;;;;28.92;19.30;;;;;;;;;;4997478;28;20242;-58
2022/01/08 13:42:14;;;;;;;28.33;18.83;;;;;;;;;;4999169;28;20369;-57
2022/01/08 13:44:40;;;;;;;30.83;19.52;;;;;;;;;;4996242;28;20207;-57
2022/01/08 13:47:15;;;;;;;27.17;18.83;;;;;;;;;;5000515;28;20175;-57
2022/01/08 13:49:41;;;;;;;28.65;19.90;;;;;;;;;;5002884;28;20208;-57
2022/01/08 13:52:15;;;;;;;32.95;21.90;;;;;;;;;;4997912;28;20176;-58
2022/01/08 13:54:40;;;;;;;37.15;22.05;;;;;;;;;;4999527;28;20290;-57
2022/01/08 13:57:16;;;;;;;33.85;22.27;;;;;;;;;;4999671;28;20270;-57
2022/01/08 13:59:41;;;;;;;29.70;19.83;;;;;;;;;;4996359;28;20189;-57
2022/01/08 14:02:10;;;;;;;32.95;21.77;;;;;;;;;;4997884;28;20183;-57
2022/01/08 14:04:36;;;;;;;29.55;19.17;;;;;;;;;;5001987;28;20221;-57
2022/01/08 14:07:01;;;;;;;27.00;18.15;;;;;;;;;;4996729;28;20231;-57
2022/01/08 14:09:26;;;;;;;27.33;19.42;;;;;;;;;;4992932;28;20289;-57
2022/01/08 14:12:08;;;;;;;32.55;20.50;;;;;;;;;;5006545;28;20187;-56
2022/01/08 14:14:40;;;;;;;34.72;21.83;;;;;;;;;;4998161;28;20248;-57
2022/01/08 14:17:12;;;;;;;33.70;23.50;;;;;;;;;;4993357;28;20662;-57
2022/01/08 14:19:38;;;;;;;29.73;19.77;;;;;;;;;;4996109;28;20187;-57
2022/01/08 14:22:09;;;;;;;29.35;19.85;;;;;;;;;;4997273;28;20194;-56
2022/01/08 14:24:35;;;;;;;29.10;19.85;;;;;;;;;;5000531;28;20234;-57
2022/01/08 14:27:22;;;;;;;50.15;33.58;;;;;;;;;;5003567;28;20247;-57
2022/01/08 14:30:04;;;;;;;52.97;38.30;;;;;;;;;;5003843;28;20210;-58
2022/01/08 14:32:30;;;;;;;35.22;22.83;;;;;;;;;;5005711;28;20270;-58
2022/01/08 14:35:01;;;;;;;32.08;21.75;;;;;;;;;;4998065;28;20341;-58
2022/01/08 14:37:30;;;;;;;31.20;21.73;;;;;;;;;;4995940;28;20663;-58
2022/01/08 14:39:56;;;;;;;31.60;20.75;;;;;;;;;;4983135;28;20260;-58
2022/01/08 14:42:27;;;;;;;34.20;22.65;;;;;;;;;;4976916;28;20696;-57